Terminal Aerodrome Forecast
Issued by NWS

Home | Current Version | Previous Version | Graphics & Text | Print | Product List | Glossary On
Versions: 1 2 3 4 5 6 7 8 9 10 11 12 13 14 15 16 17 18
000
FTUS43 KMPX 262300
TAFRNH
TAF
KRNH 262331Z 2700/2724 25007KT P6SM VCSH SCT050 BKN090
     FM270300 27005KT P6SM FEW050 SCT090
     FM271200 28011KT P6SM SCT025 OVC040
     FM271500 32013G20KT P6SM -SHRA BKN025 OVC035
     FM271800 34015G22KT P6SM -SHRA SCT030 OVC045=

USA.gov is the U.S. government's official web portal to all federal, state and local government web resources and services.